sensor_id;sensor_type;location;lat;lon;timestamp;temperature;humidity
25332;DHT22;13284;52.748;13.452;2023-06-26T00:01:55;18.80;99.90
25332;DHT22;13284;52.748;13.452;2023-06-26T00:04:21;18.80;99.90
25332;DHT22;13284;52.748;13.452;2023-06-26T00:06:46;18.80;99.90
25332;DHT22;13284;52.748;13.452;2023-06-26T00:09:12;18.80;99.90
25332;DHT22;13284;52.748;13.452;2023-06-26T00:11:37;18.80;99.90
25332;DHT22;13284;52.748;13.452;2023-06-26T00:14:03;18.80;99.90
25332;DHT22;13284;52.748;13.452;2023-06-26T00:16:28;18.80;99.90
25332;DHT22;13284;52.748;13.452;2023-06-26T00:18:54;18.90;99.90
25332;DHT22;13284;52.748;13.452;2023-06-26T00:21:19;18.80;99.90
25332;DHT22;13284;52.748;13.452;2023-06-26T00:23:45;18.80;99.90
25332;DHT22;13284;52.748;13.452;2023-06-26T00:26:11;18.80;99.90
25332;DHT22;13284;52.748;13.452;2023-06-26T00:28:37;18.80;99.90
25332;DHT22;13284;52.748;13.452;2023-06-26T00:31:03;18.90;99.90
25332;DHT22;13284;52.748;13.452;2023-06-26T00:33:28;18.90;99.90
25332;DHT22;13284;52.748;13.452;2023-06-26T00:35:54;18.90;99.90
25332;DHT22;13284;52.748;13.452;2023-06-26T00:38:19;18.90;99.90
25332;DHT22;13284;52.748;13.452;2023-06-26T00:40:45;18.80;99.90
25332;DHT22;13284;52.748;13.452;2023-06-26T00:43:11;18.90;99.90
25332;DHT22;13284;52.748;13.452;2023-06-26T00:45:36;18.90;99.90
25332;DHT22;13284;52.748;13.452;2023-06-26T00:48:02;19.00;99.90
25332;DHT22;13284;52.748;13.452;2023-06-26T00:50:28;18.90;99.90
25332;DHT22;13284;52.748;13.452;2023-06-26T00:52:54;19.00;99.90
25332;DHT22;13284;52.748;13.452;2023-06-26T00:55:22;19.00;99.90
25332;DHT22;13284;52.748;13.452;2023-06-26T00:57:47;19.00;99.90
25332;DHT22;13284;52.748;13.452;2023-06-26T01:00:14;18.90;99.90
25332;DHT22;13284;52.748;13.452;2023-06-26T01:02:39;19.00;99.90
25332;DHT22;13284;52.748;13.452;2023-06-26T01:05:05;18.90;99.90
25332;DHT22;13284;52.748;13.452;2023-06-26T01:07:32;18.90;99.90
25332;DHT22;13284;52.748;13.452;2023-06-26T01:10:04;18.90;99.90
25332;DHT22;13284;52.748;13.452;2023-06-26T01:12:31;18.90;99.90
25332;DHT22;13284;52.748;13.452;2023-06-26T01:14:58;18.90;99.90
25332;DHT22;13284;52.748;13.452;2023-06-26T01:17:24;18.90;99.90
25332;DHT22;13284;52.748;13.452;2023-06-26T01:19:50;18.90;99.90
25332;DHT22;13284;52.748;13.452;2023-06-26T01:22:43;18.80;99.90
25332;DHT22;13284;52.748;13.452;2023-06-26T01:25:33;18.80;99.90
25332;DHT22;13284;52.748;13.452;2023-06-26T01:28:05;18.80;99.90
25332;DHT22;13284;52.748;13.452;2023-06-26T01:30:32;18.80;99.90
25332;DHT22;13284;52.748;13.452;2023-06-26T01:32:58;18.80;99.90
25332;DHT22;13284;52.748;13.452;2023-06-26T01:35:25;18.80;99.90
25332;DHT22;13284;52.748;13.452;2023-06-26T01:37:50;18.80;99.90
25332;DHT22;13284;52.748;13.452;2023-06-26T01:40:16;18.80;99.90
25332;DHT22;13284;52.748;13.452;2023-06-26T01:42:41;18.90;99.90
25332;DHT22;13284;52.748;13.452;2023-06-26T01:45:27;18.90;99.90
25332;DHT22;13284;52.748;13.452;2023-06-26T01:47:55;18.90;99.90
25332;DHT22;13284;52.748;13.452;2023-06-26T01:50:24;18.90;99.90
25332;DHT22;13284;52.748;13.452;2023-06-26T01:53:06;18.80;99.90
25332;DHT22;13284;52.748;13.452;2023-06-26T01:55:47;18.80;99.90
25332;DHT22;13284;52.748;13.452;2023-06-26T01:58:14;18.80;99.90
25332;DHT22;13284;52.748;13.452;2023-06-26T02:00:42;18.90;99.90
25332;DHT22;13284;52.748;13.452;2023-06-26T02:03:08;18.90;99.90
25332;DHT22;13284;52.748;13.452;2023-06-26T02:05:33;18.90;99.90
25332;DHT22;13284;52.748;13.452;2023-06-26T02:07:59;18.90;99.90
25332;DHT22;13284;52.748;13.452;2023-06-26T02:10:26;18.90;99.90
25332;DHT22;13284;52.748;13.452;2023-06-26T02:19:36;19.00;99.90
25332;DHT22;13284;52.748;13.452;2023-06-26T02:22:01;19.00;99.90
25332;DHT22;13284;52.748;13.452;2023-06-26T02:24:27;19.00;99.90
25332;DHT22;13284;52.748;13.452;2023-06-26T02:26:55;19.00;99.90
25332;DHT22;13284;52.748;13.452;2023-06-26T02:29:21;19.00;99.90
25332;DHT22;13284;52.748;13.452;2023-06-26T02:31:47;19.00;99.90
25332;DHT22;13284;52.748;13.452;2023-06-26T02:34:13;19.00;99.90
25332;DHT22;13284;52.748;13.452;2023-06-26T02:36:38;19.10;99.90
25332;DHT22;13284;52.748;13.452;2023-06-26T02:39:04;19.00;99.90
25332;DHT22;13284;52.748;13.452;2023-06-26T02:41:30;19.10;99.90
25332;DHT22;13284;52.748;13.452;2023-06-26T02:43:55;19.10;99.90
25332;DHT22;13284;52.748;13.452;2023-06-26T02:46:21;19.00;99.90
25332;DHT22;13284;52.748;13.452;2023-06-26T02:48:46;19.00;99.90
25332;DHT22;13284;52.748;13.452;2023-06-26T02:51:12;19.10;99.90
25332;DHT22;13284;52.748;13.452;2023-06-26T02:53:37;19.10;99.90
25332;DHT22;13284;52.748;13.452;2023-06-26T02:56:03;19.10;99.90
25332;DHT22;13284;52.748;13.452;2023-06-26T02:58:28;19.10;99.90
25332;DHT22;13284;52.748;13.452;2023-06-26T03:00:54;19.10;99.90
25332;DHT22;13284;52.748;13.452;2023-06-26T03:03:19;19.10;99.90
25332;DHT22;13284;52.748;13.452;2023-06-26T03:05:45;19.10;99.90
25332;DHT22;13284;52.748;13.452;2023-06-26T03:08:10;19.00;99.90
25332;DHT22;13284;52.748;13.452;2023-06-26T03:10:36;19.10;99.90
25332;DHT22;13284;52.748;13.452;2023-06-26T03:13:01;19.10;99.90
25332;DHT22;13284;52.748;13.452;2023-06-26T03:15:26;19.00;99.90
25332;DHT22;13284;52.748;13.452;2023-06-26T03:17:52;19.10;99.90
25332;DHT22;13284;52.748;13.452;2023-06-26T03:20:17;19.00;99.90
25332;DHT22;13284;52.748;13.452;2023-06-26T03:22:43;19.00;99.90
25332;DHT22;13284;52.748;13.452;2023-06-26T03:25:08;19.00;99.90
25332;DHT22;13284;52.748;13.452;2023-06-26T03:27:34;19.00;99.90
25332;DHT22;13284;52.748;13.452;2023-06-26T03:29:59;19.00;99.90
25332;DHT22;13284;52.748;13.452;2023-06-26T03:32:25;19.00;99.90
25332;DHT22;13284;52.748;13.452;2023-06-26T03:34:51;19.00;99.90
25332;DHT22;13284;52.748;13.452;2023-06-26T03:37:18;19.10;99.90
25332;DHT22;13284;52.748;13.452;2023-06-26T03:39:43;19.10;99.90
25332;DHT22;13284;52.748;13.452;2023-06-26T03:42:09;19.10;99.90
25332;DHT22;13284;52.748;13.452;2023-06-26T03:44:34;19.10;99.90
25332;DHT22;13284;52.748;13.452;2023-06-26T03:47:00;19.10;99.90
25332;DHT22;13284;52.748;13.452;2023-06-26T03:49:25;19.20;99.90
25332;DHT22;13284;52.748;13.452;2023-06-26T03:51:51;19.20;99.90
25332;DHT22;13284;52.748;13.452;2023-06-26T03:54:16;19.20;99.90
25332;DHT22;13284;52.748;13.452;2023-06-26T03:56:42;19.30;99.90
25332;DHT22;13284;52.748;13.452;2023-06-26T03:59:07;19.30;99.90
25332;DHT22;13284;52.748;13.452;2023-06-26T04:01:33;19.30;99.90
25332;DHT22;13284;52.748;13.452;2023-06-26T04:04:00;19.40;99.90
25332;DHT22;13284;52.748;13.452;2023-06-26T04:06:25;19.50;99.90
25332;DHT22;13284;52.748;13.452;2023-06-26T04:08:51;19.60;99.90
25332;DHT22;13284;52.748;13.452;2023-06-26T04:11:16;19.70;99.90
25332;DHT22;13284;52.748;13.452;2023-06-26T04:13:42;19.70;99.90
25332;DHT22;13284;52.748;13.452;2023-06-26T04:16:07;19.80;99.90
25332;DHT22;13284;52.748;13.452;2023-06-26T04:18:33;19.90;99.90
25332;DHT22;13284;52.748;13.452;2023-06-26T04:21:12;20.00;99.90
25332;DHT22;13284;52.748;13.452;2023-06-26T04:23:39;20.00;99.90
25332;DHT22;13284;52.748;13.452;2023-06-26T04:26:05;20.10;99.90
25332;DHT22;13284;52.748;13.452;2023-06-26T04:28:35;20.10;99.90
25332;DHT22;13284;52.748;13.452;2023-06-26T04:31:01;20.20;99.90
25332;DHT22;13284;52.748;13.452;2023-06-26T04:33:28;20.30;99.90
25332;DHT22;13284;52.748;13.452;2023-06-26T04:35:54;20.30;99.90
25332;DHT22;13284;52.748;13.452;2023-06-26T04:38:20;20.40;99.90
25332;DHT22;13284;52.748;13.452;2023-06-26T04:40:47;20.40;99.90
25332;DHT22;13284;52.748;13.452;2023-06-26T04:43:12;20.40;99.90
25332;DHT22;13284;52.748;13.452;2023-06-26T04:45:38;20.40;99.90
25332;DHT22;13284;52.748;13.452;2023-06-26T04:48:03;20.40;99.90
25332;DHT22;13284;52.748;13.452;2023-06-26T04:50:30;20.50;99.90
25332;DHT22;13284;52.748;13.452;2023-06-26T04:52:56;20.50;99.90
25332;DHT22;13284;52.748;13.452;2023-06-26T04:55:24;20.50;99.90
25332;DHT22;13284;52.748;13.452;2023-06-26T04:57:50;20.60;99.90
25332;DHT22;13284;52.748;13.452;2023-06-26T05:00:16;20.60;99.90
25332;DHT22;13284;52.748;13.452;2023-06-26T05:02:41;20.70;99.90
25332;DHT22;13284;52.748;13.452;2023-06-26T05:05:07;20.80;99.90
25332;DHT22;13284;52.748;13.452;2023-06-26T05:07:32;21.00;99.90
25332;DHT22;13284;52.748;13.452;2023-06-26T05:09:58;21.30;99.90
25332;DHT22;13284;52.748;13.452;2023-06-26T05:12:23;21.60;99.90
25332;DHT22;13284;52.748;13.452;2023-06-26T05:14:49;21.80;99.90
25332;DHT22;13284;52.748;13.452;2023-06-26T05:17:15;22.00;99.90
25332;DHT22;13284;52.748;13.452;2023-06-26T05:19:40;22.20;99.90
25332;DHT22;13284;52.748;13.452;2023-06-26T05:22:06;22.40;99.90
25332;DHT22;13284;52.748;13.452;2023-06-26T05:24:34;22.60;99.90
25332;DHT22;13284;52.748;13.452;2023-06-26T05:27:00;22.60;99.90
25332;DHT22;13284;52.748;13.452;2023-06-26T05:29:26;22.80;99.90
25332;DHT22;13284;52.748;13.452;2023-06-26T05:31:53;22.90;99.90
25332;DHT22;13284;52.748;13.452;2023-06-26T05:34:23;23.00;99.90
25332;DHT22;13284;52.748;13.452;2023-06-26T05:36:50;23.10;99.90
25332;DHT22;13284;52.748;13.452;2023-06-26T05:39:16;23.40;99.90
25332;DHT22;13284;52.748;13.452;2023-06-26T05:41:44;23.50;99.90
25332;DHT22;13284;52.748;13.452;2023-06-26T05:44:10;23.60;99.90
25332;DHT22;13284;52.748;13.452;2023-06-26T05:46:35;23.60;99.90
25332;DHT22;13284;52.748;13.452;2023-06-26T05:49:01;23.80;99.90
25332;DHT22;13284;52.748;13.452;2023-06-26T05:51:27;23.90;99.90
25332;DHT22;13284;52.748;13.452;2023-06-26T05:53:53;23.90;99.90
25332;DHT22;13284;52.748;13.452;2023-06-26T05:56:19;24.00;99.90
25332;DHT22;13284;52.748;13.452;2023-06-26T05:58:45;24.20;99.90
25332;DHT22;13284;52.748;13.452;2023-06-26T06:01:11;24.20;99.90
25332;DHT22;13284;52.748;13.452;2023-06-26T06:03:38;24.20;99.90
25332;DHT22;13284;52.748;13.452;2023-06-26T06:06:04;24.30;99.90
25332;DHT22;13284;52.748;13.452;2023-06-26T06:08:30;24.40;99.90
25332;DHT22;13284;52.748;13.452;2023-06-26T06:10:55;24.60;99.90
25332;DHT22;13284;52.748;13.452;2023-06-26T06:13:21;24.70;99.90
25332;DHT22;13284;52.748;13.452;2023-06-26T06:15:46;24.80;99.90
25332;DHT22;13284;52.748;13.452;2023-06-26T06:18:12;24.80;99.90
25332;DHT22;13284;52.748;13.452;2023-06-26T06:20:37;24.90;99.90
25332;DHT22;13284;52.748;13.452;2023-06-26T06:23:03;25.10;99.90
25332;DHT22;13284;52.748;13.452;2023-06-26T06:25:28;25.20;99.90
25332;DHT22;13284;52.748;13.452;2023-06-26T06:27:54;25.30;99.90
25332;DHT22;13284;52.748;13.452;2023-06-26T06:30:19;25.50;99.90
25332;DHT22;13284;52.748;13.452;2023-06-26T06:32:45;25.50;99.90
25332;DHT22;13284;52.748;13.452;2023-06-26T06:35:16;25.60;99.90
25332;DHT22;13284;52.748;13.452;2023-06-26T06:37:42;25.60;99.90
25332;DHT22;13284;52.748;13.452;2023-06-26T06:40:09;25.80;99.90
25332;DHT22;13284;52.748;13.452;2023-06-26T06:42:35;25.90;99.90
25332;DHT22;13284;52.748;13.452;2023-06-26T06:45:02;26.00;99.90
25332;DHT22;13284;52.748;13.452;2023-06-26T06:47:27;26.10;99.90
25332;DHT22;13284;52.748;13.452;2023-06-26T06:49:53;26.30;99.90
25332;DHT22;13284;52.748;13.452;2023-06-26T06:52:19;26.50;99.90
25332;DHT22;13284;52.748;13.452;2023-06-26T06:54:54;26.60;99.90
25332;DHT22;13284;52.748;13.452;2023-06-26T06:57:22;26.70;99.90
25332;DHT22;13284;52.748;13.452;2023-06-26T06:59:48;26.60;99.90
25332;DHT22;13284;52.748;13.452;2023-06-26T07:02:15;26.70;99.90
25332;DHT22;13284;52.748;13.452;2023-06-26T07:04:41;26.60;99.90
25332;DHT22;13284;52.748;13.452;2023-06-26T07:07:06;26.70;99.90
25332;DHT22;13284;52.748;13.452;2023-06-26T07:09:32;26.80;99.90
25332;DHT22;13284;52.748;13.452;2023-06-26T07:11:58;27.10;99.90
25332;DHT22;13284;52.748;13.452;2023-06-26T07:14:23;26.90;99.90
25332;DHT22;13284;52.748;13.452;2023-06-26T07:16:49;27.00;99.90
25332;DHT22;13284;52.748;13.452;2023-06-26T07:19:14;27.00;99.90
25332;DHT22;13284;52.748;13.452;2023-06-26T07:21:40;26.90;99.90
25332;DHT22;13284;52.748;13.452;2023-06-26T07:24:06;26.80;99.90
25332;DHT22;13284;52.748;13.452;2023-06-26T07:26:32;26.80;99.90
25332;DHT22;13284;52.748;13.452;2023-06-26T07:28:57;26.90;99.90
25332;DHT22;13284;52.748;13.452;2023-06-26T07:31:23;26.80;99.90
25332;DHT22;13284;52.748;13.452;2023-06-26T07:33:48;27.00;99.90
25332;DHT22;13284;52.748;13.452;2023-06-26T07:36:14;27.20;99.90
25332;DHT22;13284;52.748;13.452;2023-06-26T07:38:39;27.10;99.90
25332;DHT22;13284;52.748;13.452;2023-06-26T07:41:05;27.00;99.90
25332;DHT22;13284;52.748;13.452;2023-06-26T07:43:30;27.00;99.90
25332;DHT22;13284;52.748;13.452;2023-06-26T07:45:56;26.90;99.90
25332;DHT22;13284;52.748;13.452;2023-06-26T07:48:24;27.00;99.90
25332;DHT22;13284;52.748;13.452;2023-06-26T07:50:49;27.10;99.90
25332;DHT22;13284;52.748;13.452;2023-06-26T07:53:15;27.10;99.90
25332;DHT22;13284;52.748;13.452;2023-06-26T07:55:40;27.30;99.90
25332;DHT22;13284;52.748;13.452;2023-06-26T07:58:07;27.60;99.90
25332;DHT22;13284;52.748;13.452;2023-06-26T08:00:33;28.00;99.90
25332;DHT22;13284;52.748;13.452;2023-06-26T08:02:58;28.30;99.90
25332;DHT22;13284;52.748;13.452;2023-06-26T08:05:24;28.60;99.90
25332;DHT22;13284;52.748;13.452;2023-06-26T08:07:49;28.90;99.90
25332;DHT22;13284;52.748;13.452;2023-06-26T08:10:15;29.00;99.90
25332;DHT22;13284;52.748;13.452;2023-06-26T08:12:40;29.40;99.90
25332;DHT22;13284;52.748;13.452;2023-06-26T08:15:08;29.70;99.90
25332;DHT22;13284;52.748;13.452;2023-06-26T08:17:35;30.10;99.90
25332;DHT22;13284;52.748;13.452;2023-06-26T08:20:01;30.00;99.90
25332;DHT22;13284;52.748;13.452;2023-06-26T08:22:27;30.00;99.90
25332;DHT22;13284;52.748;13.452;2023-06-26T08:24:52;29.90;99.90
25332;DHT22;13284;52.748;13.452;2023-06-26T08:27:18;29.80;99.90
25332;DHT22;13284;52.748;13.452;2023-06-26T08:29:43;29.90;99.90
25332;DHT22;13284;52.748;13.452;2023-06-26T08:32:08;29.80;99.90
25332;DHT22;13284;52.748;13.452;2023-06-26T08:34:34;30.00;99.90
25332;DHT22;13284;52.748;13.452;2023-06-26T08:36:59;30.20;99.90
25332;DHT22;13284;52.748;13.452;2023-06-26T08:39:25;30.50;99.90
25332;DHT22;13284;52.748;13.452;2023-06-26T08:41:50;30.50;99.90
25332;DHT22;13284;52.748;13.452;2023-06-26T08:44:16;31.00;99.90
25332;DHT22;13284;52.748;13.452;2023-06-26T08:46:42;31.20;99.90
25332;DHT22;13284;52.748;13.452;2023-06-26T08:49:14;31.00;99.90
25332;DHT22;13284;52.748;13.452;2023-06-26T08:51:45;31.20;99.90
25332;DHT22;13284;52.748;13.452;2023-06-26T08:54:15;31.30;99.90
25332;DHT22;13284;52.748;13.452;2023-06-26T08:56:44;31.20;99.90
25332;DHT22;13284;52.748;13.452;2023-06-26T08:59:12;31.30;99.90
25332;DHT22;13284;52.748;13.452;2023-06-26T09:01:40;31.00;99.90
25332;DHT22;13284;52.748;13.452;2023-06-26T09:04:06;31.40;99.90
25332;DHT22;13284;52.748;13.452;2023-06-26T09:06:32;31.50;99.90
25332;DHT22;13284;52.748;13.452;2023-06-26T09:08:58;31.70;99.90
25332;DHT22;13284;52.748;13.452;2023-06-26T09:11:23;32.00;99.90
25332;DHT22;13284;52.748;13.452;2023-06-26T09:13:49;31.70;99.90
25332;DHT22;13284;52.748;13.452;2023-06-26T09:16:15;32.00;99.90
25332;DHT22;13284;52.748;13.452;2023-06-26T09:18:41;32.20;99.90
25332;DHT22;13284;52.748;13.452;2023-06-26T09:21:09;32.50;99.90
25332;DHT22;13284;52.748;13.452;2023-06-26T09:23:35;32.70;99.90
25332;DHT22;13284;52.748;13.452;2023-06-26T09:26:03;32.60;99.90
25332;DHT22;13284;52.748;13.452;2023-06-26T09:28:30;32.60;99.90
25332;DHT22;13284;52.748;13.452;2023-06-26T09:31:03;32.80;99.90
25332;DHT22;13284;52.748;13.452;2023-06-26T09:33:33;33.00;99.90
25332;DHT22;13284;52.748;13.452;2023-06-26T09:35:59;33.10;99.90
25332;DHT22;13284;52.748;13.452;2023-06-26T09:38:25;32.80;99.90
25332;DHT22;13284;52.748;13.452;2023-06-26T09:40:52;33.00;99.90
25332;DHT22;13284;52.748;13.452;2023-06-26T09:43:18;32.80;99.60
25332;DHT22;13284;52.748;13.452;2023-06-26T09:45:44;33.20;99.90
25332;DHT22;13284;52.748;13.452;2023-06-26T09:48:09;33.80;99.90
25332;DHT22;13284;52.748;13.452;2023-06-26T09:50:37;33.30;99.90
25332;DHT22;13284;52.748;13.452;2023-06-26T09:53:10;33.00;99.20
25332;DHT22;13284;52.748;13.452;2023-06-26T09:55:36;33.50;99.40
25332;DHT22;13284;52.748;13.452;2023-06-26T09:58:03;33.60;97.50
25332;DHT22;13284;52.748;13.452;2023-06-26T10:00:29;34.40;98.20
25332;DHT22;13284;52.748;13.452;2023-06-26T10:02:55;34.80;98.40
25332;DHT22;13284;52.748;13.452;2023-06-26T10:05:20;34.90;98.20
25332;DHT22;13284;52.748;13.452;2023-06-26T10:07:47;34.10;94.90
25332;DHT22;13284;52.748;13.452;2023-06-26T10:10:13;33.40;96.20
25332;DHT22;13284;52.748;13.452;2023-06-26T10:12:40;33.60;97.00
25332;DHT22;13284;52.748;13.452;2023-06-26T10:15:08;33.50;96.70
25332;DHT22;13284;52.748;13.452;2023-06-26T10:17:39;33.80;97.00
25332;DHT22;13284;52.748;13.452;2023-06-26T10:20:07;34.00;96.90
25332;DHT22;13284;52.748;13.452;2023-06-26T10:22:39;34.60;95.50
25332;DHT22;13284;52.748;13.452;2023-06-26T10:25:07;33.50;96.20
25332;DHT22;13284;52.748;13.452;2023-06-26T10:27:42;32.60;95.30
25332;DHT22;13284;52.748;13.452;2023-06-26T10:30:16;32.90;96.30
25332;DHT22;13284;52.748;13.452;2023-06-26T10:32:43;33.30;95.80
25332;DHT22;13284;52.748;13.452;2023-06-26T10:35:11;33.50;95.40
25332;DHT22;13284;52.748;13.452;2023-06-26T10:37:44;33.70;94.80
25332;DHT22;13284;52.748;13.452;2023-06-26T10:40:11;34.00;93.90
25332;DHT22;13284;52.748;13.452;2023-06-26T10:42:38;34.80;96.80
25332;DHT22;13284;52.748;13.452;2023-06-26T10:47:40;34.60;94.40
25332;DHT22;13284;52.748;13.452;2023-06-26T10:50:19;34.10;93.60
25332;DHT22;13284;52.748;13.452;2023-06-26T10:52:45;34.30;93.60
25332;DHT22;13284;52.748;13.452;2023-06-26T10:55:10;34.50;93.50
25332;DHT22;13284;52.748;13.452;2023-06-26T10:57:36;34.30;94.60
25332;DHT22;13284;52.748;13.452;2023-06-26T11:00:13;35.00;95.30
25332;DHT22;13284;52.748;13.452;2023-06-26T11:02:51;35.40;93.00
25332;DHT22;13284;52.748;13.452;2023-06-26T11:05:24;35.40;93.60
25332;DHT22;13284;52.748;13.452;2023-06-26T11:08:05;34.70;92.70
25332;DHT22;13284;52.748;13.452;2023-06-26T11:10:48;34.60;92.70
25332;DHT22;13284;52.748;13.452;2023-06-26T11:13:15;35.50;94.20
25332;DHT22;13284;52.748;13.452;2023-06-26T11:15:43;35.50;92.00
25332;DHT22;13284;52.748;13.452;2023-06-26T11:18:09;35.20;91.60
25332;DHT22;13284;52.748;13.452;2023-06-26T11:20:35;34.60;92.60
25332;DHT22;13284;52.748;13.452;2023-06-26T11:23:01;34.40;92.30
25332;DHT22;13284;52.748;13.452;2023-06-26T11:25:28;34.80;91.70
25332;DHT22;13284;52.748;13.452;2023-06-26T11:27:54;35.30;92.80
25332;DHT22;13284;52.748;13.452;2023-06-26T11:30:24;35.10;90.90
25332;DHT22;13284;52.748;13.452;2023-06-26T11:32:49;34.60;92.00
25332;DHT22;13284;52.748;13.452;2023-06-26T11:35:24;34.90;91.60
25332;DHT22;13284;52.748;13.452;2023-06-26T11:38:00;34.80;92.40
25332;DHT22;13284;52.748;13.452;2023-06-26T11:40:33;35.30;92.00
25332;DHT22;13284;52.748;13.452;2023-06-26T11:43:00;35.40;92.50
25332;DHT22;13284;52.748;13.452;2023-06-26T11:45:31;34.60;91.30
25332;DHT22;13284;52.748;13.452;2023-06-26T11:47:57;34.60;91.40
25332;DHT22;13284;52.748;13.452;2023-06-26T11:50:24;36.00;92.70
25332;DHT22;13284;52.748;13.452;2023-06-26T11:52:57;36.00;91.50
25332;DHT22;13284;52.748;13.452;2023-06-26T11:55:24;35.60;91.30
25332;DHT22;13284;52.748;13.452;2023-06-26T11:57:52;35.60;90.60
25332;DHT22;13284;52.748;13.452;2023-06-26T12:00:18;35.50;93.50
25332;DHT22;13284;52.748;13.452;2023-06-26T12:02:47;35.70;91.90
25332;DHT22;13284;52.748;13.452;2023-06-26T12:05:16;35.90;91.30
25332;DHT22;13284;52.748;13.452;2023-06-26T12:07:47;34.60;91.00
25332;DHT22;13284;52.748;13.452;2023-06-26T12:10:14;33.60;92.30
25332;DHT22;13284;52.748;13.452;2023-06-26T12:12:41;33.80;92.60
25332;DHT22;13284;52.748;13.452;2023-06-26T12:15:07;34.20;92.90
25332;DHT22;13284;52.748;13.452;2023-06-26T12:17:37;34.50;92.90
25332;DHT22;13284;52.748;13.452;2023-06-26T12:20:03;34.70;93.20
25332;DHT22;13284;52.748;13.452;2023-06-26T12:22:34;35.20;92.60
25332;DHT22;13284;52.748;13.452;2023-06-26T12:25:00;35.10;91.10
25332;DHT22;13284;52.748;13.452;2023-06-26T12:27:25;34.40;90.80
25332;DHT22;13284;52.748;13.452;2023-06-26T12:29:52;34.50;91.80
25332;DHT22;13284;52.748;13.452;2023-06-26T12:32:19;34.40;91.80
25332;DHT22;13284;52.748;13.452;2023-06-26T12:34:48;35.10;91.60
25332;DHT22;13284;52.748;13.452;2023-06-26T12:37:14;34.70;91.30
25332;DHT22;13284;52.748;13.452;2023-06-26T12:39:57;34.80;90.40
25332;DHT22;13284;52.748;13.452;2023-06-26T12:42:27;34.50;91.20
25332;DHT22;13284;52.748;13.452;2023-06-26T12:44:53;35.00;91.90
25332;DHT22;13284;52.748;13.452;2023-06-26T12:47:25;35.10;92.00
25332;DHT22;13284;52.748;13.452;2023-06-26T12:49:51;35.10;91.50
25332;DHT22;13284;52.748;13.452;2023-06-26T12:52:18;35.00;90.80
25332;DHT22;13284;52.748;13.452;2023-06-26T12:54:45;35.00;91.10
25332;DHT22;13284;52.748;13.452;2023-06-26T12:57:12;34.90;91.60
25332;DHT22;13284;52.748;13.452;2023-06-26T12:59:39;34.70;91.20
25332;DHT22;13284;52.748;13.452;2023-06-26T13:02:06;34.40;90.40
25332;DHT22;13284;52.748;13.452;2023-06-26T13:04:32;34.50;91.00
25332;DHT22;13284;52.748;13.452;2023-06-26T13:06:58;34.00;90.30
25332;DHT22;13284;52.748;13.452;2023-06-26T13:09:24;33.80;91.90
25332;DHT22;13284;52.748;13.452;2023-06-26T13:11:53;33.80;91.50
25332;DHT22;13284;52.748;13.452;2023-06-26T13:14:19;33.80;91.50
25332;DHT22;13284;52.748;13.452;2023-06-26T13:16:44;33.70;91.20
25332;DHT22;13284;52.748;13.452;2023-06-26T13:19:10;33.80;93.70
25332;DHT22;13284;52.748;13.452;2023-06-26T13:21:36;33.00;92.10
25332;DHT22;13284;52.748;13.452;2023-06-26T13:24:02;32.70;91.70
25332;DHT22;13284;52.748;13.452;2023-06-26T13:26:29;32.20;92.60
25332;DHT22;13284;52.748;13.452;2023-06-26T13:28:55;32.00;93.30
25332;DHT22;13284;52.748;13.452;2023-06-26T13:31:21;31.80;93.10
25332;DHT22;13284;52.748;13.452;2023-06-26T13:33:47;31.80;93.20
25332;DHT22;13284;52.748;13.452;2023-06-26T13:36:18;31.50;94.90
25332;DHT22;13284;52.748;13.452;2023-06-26T13:38:44;31.40;94.00
25332;DHT22;13284;52.748;13.452;2023-06-26T13:41:10;31.20;95.20
25332;DHT22;13284;52.748;13.452;2023-06-26T13:43:36;31.10;95.50
25332;DHT22;13284;52.748;13.452;2023-06-26T13:46:02;30.90;95.30
25332;DHT22;13284;52.748;13.452;2023-06-26T13:48:30;30.90;96.10
25332;DHT22;13284;52.748;13.452;2023-06-26T13:50:57;30.80;94.80
25332;DHT22;13284;52.748;13.452;2023-06-26T13:53:22;31.00;97.30
25332;DHT22;13284;52.748;13.452;2023-06-26T13:55:48;31.00;97.10
25332;DHT22;13284;52.748;13.452;2023-06-26T13:58:14;31.10;97.60
25332;DHT22;13284;52.748;13.452;2023-06-26T14:00:40;31.10;97.10
25332;DHT22;13284;52.748;13.452;2023-06-26T14:03:06;31.10;97.50
25332;DHT22;13284;52.748;13.452;2023-06-26T14:05:33;31.10;97.50
25332;DHT22;13284;52.748;13.452;2023-06-26T14:07:59;30.90;98.60
25332;DHT22;13284;52.748;13.452;2023-06-26T14:10:24;30.80;99.40
25332;DHT22;13284;52.748;13.452;2023-06-26T14:12:50;30.70;99.90
25332;DHT22;13284;52.748;13.452;2023-06-26T14:15:16;30.50;99.90
25332;DHT22;13284;52.748;13.452;2023-06-26T14:17:42;30.30;99.90
25332;DHT22;13284;52.748;13.452;2023-06-26T14:20:09;29.70;99.90
25332;DHT22;13284;52.748;13.452;2023-06-26T14:22:42;29.30;99.90
25332;DHT22;13284;52.748;13.452;2023-06-26T14:25:09;27.50;99.90
25332;DHT22;13284;52.748;13.452;2023-06-26T14:27:36;26.10;99.90
25332;DHT22;13284;52.748;13.452;2023-06-26T14:30:03;25.10;99.90
25332;DHT22;13284;52.748;13.452;2023-06-26T14:32:29;23.80;99.90
25332;DHT22;13284;52.748;13.452;2023-06-26T14:34:55;23.30;99.90
25332;DHT22;13284;52.748;13.452;2023-06-26T14:37:21;22.70;99.90
25332;DHT22;13284;52.748;13.452;2023-06-26T14:39:47;22.60;99.90
25332;DHT22;13284;52.748;13.452;2023-06-26T14:42:12;22.60;99.90
25332;DHT22;13284;52.748;13.452;2023-06-26T14:44:38;22.40;99.90
25332;DHT22;13284;52.748;13.452;2023-06-26T14:47:03;22.40;99.90
25332;DHT22;13284;52.748;13.452;2023-06-26T14:49:29;22.10;99.90
25332;DHT22;13284;52.748;13.452;2023-06-26T14:51:55;21.90;99.90
25332;DHT22;13284;52.748;13.452;2023-06-26T14:54:20;21.90;99.90
25332;DHT22;13284;52.748;13.452;2023-06-26T14:56:46;21.70;99.90
25332;DHT22;13284;52.748;13.452;2023-06-26T14:59:12;21.80;99.90
25332;DHT22;13284;52.748;13.452;2023-06-26T15:01:38;21.50;99.90
25332;DHT22;13284;52.748;13.452;2023-06-26T15:04:04;21.60;99.90
25332;DHT22;13284;52.748;13.452;2023-06-26T15:06:30;21.50;99.90
25332;DHT22;13284;52.748;13.452;2023-06-26T15:08:55;21.40;99.90
25332;DHT22;13284;52.748;13.452;2023-06-26T15:11:21;21.30;99.90
25332;DHT22;13284;52.748;13.452;2023-06-26T15:13:46;21.40;99.90
25332;DHT22;13284;52.748;13.452;2023-06-26T15:16:12;21.30;99.90
25332;DHT22;13284;52.748;13.452;2023-06-26T15:18:37;21.30;99.90
25332;DHT22;13284;52.748;13.452;2023-06-26T15:21:03;21.30;99.90
25332;DHT22;13284;52.748;13.452;2023-06-26T15:23:29;21.30;99.90